메인 페이지
METAR-TAF:

METAR-TAF

공항 :

와가두구, 부르키나파소

위도: 12-21N, 경도: 001-31W, 고도: 316m

현재 날씨관측

예보는 1 시간 50분 전, 04:00시(UTC)에 발표되었습니다.
남남서3kt
온도 25°C
습도 47%
기압 1008 hPa
시정: 8000m

METAR: DFFD 200400Z 20003KT 8000 NSC 25/13 Q1008 NOSIG

시각: 05:50 (05:50 UTC)

예보

예보는 50분 전, 05:00시(UTC)에 발표되었습니다.
예보 대상 시간: 20일 06시부터 21일 12시까지 (UTC)
남남동8kt
시정: 8000m
전환 중
20일 05시부터 20일 07시까지 (UTC)
시정: 2500m
황사

TAF: DFFD 200500Z 2006/2112 16008KT 8000 NSC BECMG 2005/2007 2500 DU

4,000개 이상의 공항 관측 자료 및 예보 (METAR 및 TAF 보고).

지도상에서 검색 가능한 기상관측소가 노란 점과 빨간 점으로 표시되어 있습니다.

기상관측소 명을 보려면 표시 위로 마우스를 이동하세요.

날씨 관측과 예보를 보려면 클릭하세요.

지도 변경 : 확대하려면 엑스 표시가 있는 녹색 버튼, 축소하려면 빼기 표시가 있는 녹색 버튼, 다음 페이지의 지도를 보려면 녹색 화살표를 클릭하세요.


METAR-TAF: